MUC | München Airways

 METAR UND TAF INFORMATION

METAR FOR LPMA
ADDS - METARS form results

(0125 UTC 24 January 2019)
Data provider http://aviationweather.gov/metar/data/
 
METAR text: LPMA 240100Z 36013KT 330V030 9999 SCT015 BKN030 14/10 Q1025
Conditions at: LPMA (FUNCHAL/MADEIRA , PT) observed 0100 UTC 24 January 2019
Temperature: 14.0°C (57°F)
Dewpoint: 10.0°C (50°F) [RH = 77%]
Pressure (altimeter): 30.27 inches Hg (1025.0 mb)
Winds: from the N (360 degrees) at 15 MPH (13 knots; 6.7 m/s)
Visibility: 6 or more miles (10+ km)
Ceiling: 3000 feet AGL
Clouds: scattered clouds at 1500 feet AGL
broken clouds at 3000 feet AGL
Weather: no significant weather observed at this time

METAR text: LPMA 240030Z 01013KT 9999 -SHRA SCT015 BKN030 14/11 Q1025
Conditions at: LPMA (FUNCHAL/MADEIRA , PT) observed 0030 UTC 24 January 2019
Temperature: 14.0°C (57°F)
Dewpoint: 11.0°C (52°F) [RH = 82%]
Pressure (altimeter): 30.27 inches Hg (1025.0 mb)
Winds: from the N (10 degrees) at 15 MPH (13 knots; 6.7 m/s)
Visibility: 6 or more miles (10+ km)
Ceiling: 3000 feet AGL
Clouds: scattered clouds at 1500 feet AGL
broken clouds at 3000 feet AGL
Weather: -SHRA  (light rain showers)

Forecast for: LPMA (FUNCHAL/MADEIRA , PT)
Text: TAF LPMA 232300Z 2400/2424 01010KT 9999 SCT015 SCT030
Forecast period: 0000 to 1500 UTC 24 January 2019
Forecast type: FROM: standard forecast or significant change
Winds: from the N (10 degrees) at 12 MPH (10 knots; 5.1 m/s)
Visibility: 6 or more miles 10+ km)
Ceiling: at least 12,000 feet AGL
Clouds: scattered clouds at 1500 feet AGL
scattered clouds at 3000 feet AGL
Weather: no significant weather forecast for this period
Text: PROB30
Forecast period: 0000 UTC 24 January 2019 to 0000 UTC 25 January 2019
Forecast type: TEMPORARY: The following changes expected for less than half the time period
Visibility: 5 miles (8 km)
Ceiling: 1500 feet AGL
Clouds: broken clouds at 1500 feet AGL
Weather: SHRA  (rain showers)
Text: TEMPO 2400/2424 8000 SHRA BKN015
Forecast period: 1500 UTC 24 January 2019 to 0000 UTC 25 January 2019
Forecast type: BECOMING: Conditions expected to become as follows by 1800 UTC 24 January 2019
Winds: from the NNE (20 degrees) at 17 MPH (15 knots; 7.7 m/s)
Visibility: 6 or more miles 10+ km)
Ceiling: at least 12,000 feet AGL
Clouds: scattered clouds at 1500 feet AGL
scattered clouds at 3000 feet AGL
Weather: no significant weather forecast for this period

 FLUGHAFENKARTE

 RUNWAY INFORMATION
Runway 05 Runway length 9110 ft Runway width 148 ft
Runway elevation 147 ft Runway displaced threshold 480 ft Runway heading 45
Runway 23 Runway length 9110 ft Runway width 148 ft
Runway elevation 192 ft Runway displaced threshold 490 ft Runway heading 225

 AIRPORT FREQUENCIES
Type APP Name APP Frequency 119.2 MHZ
Type TWR Name TWR Frequency 118.35 MHZ

 AIRPORT NEAR NAVIGATION AIDS
Type VOR-DME Name Madeira Frequency 112200 KHZ
Type NDB Name Madeira Frequency 318 KHZ